Timeline UpdatesTrip UpdatesNews PostsPvt Posts♥♥Travel TipsAdmin PostsConv PostsFollowed PostsChat RequestsBlog PostsPNR Posts

Disclaimer
Search
 
 
Thu Oct 30, 2014 17:49:18 ISTHomeTrainsΣChainsAtlasPNRForumGalleryNewsFAQTripsMembersLoginFeedback
No Recent News for this Train
Other Trains in the News **new
Latest...
.
Tue Jun 17, 2014 (04:25PM)
⇐ Return Journey: Train# 11124

11123/Barauni-Gwalior Mail

Time-Table HAS CHANGED.
Sep 01 2014 (11:54PM)
Change Departure Station:
Change Arrival Station:
Post a Train Travel TipPost a Train Travel Tip **new
Post a Comment/Question/Picture/VideoPost a Comment/Question/Picture/Video
Pantry/Catering
✕ NO Pantry Car
✕ NO Catering
Loco/Rake Reversals
JHS/Jhansi Junction (7);
RSA - Rake Sharing
Rake/Coach Composition
.LOCO<-SLR-GN-GN-GN-A1-B1-B2-S1-S2-S3-S4-S5-S6-S7-S8-S9-S10-GN-GN-SLR.
Loco
Hauled by WDM 3A/3B from BJU-GWL
News    PNR    Forum    Time-Table    Availability    Fare Chart    Map    Arr/Dep History    Trips    Gallery    ΣChains    X/O    Timeline    
Travel Time: 3h 35m    6 halts    Distance: 146 km    Avg Speed: 40 km/hr
Type: Mail/Express
Zone: NCR/North Central
Departs @ 18:45 (Avg 13m late)
Platform# 9
SMTWTFS
Barauni Junction/BJU 
Arrives @ 22:20 (Avg 57m late)
Platform# 1
SMTWTFS
Sarai/SAI 

6 halts. 26 intermediate Stations between Barauni Junction and Sarai

Show ALL intermediate Stations  Show Old Time-Table

#TrkCodeStation NameX/OArrivesAvgDepartsAvgHaltPFDay#KmSpeedElevZoneAddress
1/==/BJUBarauni Junction (9)»  -18:45+13910.05949mECRBegusarai, Bihar
2/==/DSSDalsingh Sarai (2)  19:14 19:13+2719:15+271 2m1127.346 ECR06278-221238, Bihar
3/==/SPJSamastipur Junction (9)  19:45+2719:55+2810m--150.55455mECRSamastipur, Bihar
4/==/KRBPKhudiram B Pusa (2)  20:09 20:10+3320:10 20:12+341 2m--164.26752mECRDistt. Samastipur, Bihar
5/==/DOLDholi (2)X  20:23 20:24+3720:24 20:26+381 2m--177.524 ECRDistt. Muzaffarpur, Bihar
6/==/MFPMuzaffarpur Junction (6)X  21:28+3021:35+357m31102.76057mECRMuzaffarpur, Bihar
7/--/BNRBhagwanpur (2)O  22:14 22:09+5322:15 22:11+551 2m21136.86060mECRBhagwanpur, Bihar
8/--/SAISarai (1)•X  22:25 22:20+5722:26 22:25+551 5m11145.96454mECRVaishali, Bihar
9/-=/HJPHajipur Junction (3)X  22:44 22:35+5622:45 22:40+571 5m11156.53355mECR06224-272230, Bihar
10/==/SEESonpur Junction (4)  22:55 22:50+1:0023:00 22:55+1:015m--1162.06656mECRSaran, Bihar
11/==/DGADighwara (2)O  23:38 23:16+1:0523:39 23:18+1:051 2m11185.13060mECR06158-281240, Bihar
12/==/CPRChhapra Junction (6)  00:20+1:1300:30+1:1410m--2216.17958mNERDistt: Saran, Bihar
13%==%DDADuraundha Junction (3)  01:03+1:2601:04+1:271m--2259.55164mNERDistt: Siwan, Bihar
14%==%SVSiwan Junction (4)  01:25+1:2201:30+1:225m--2277.35870mNERSiwan, Bihar
15%==%MWMairwa (2)  01:52+1:2101:53+1:221m--2298.63973mNERMairwa, Bihar
16%==%BTKBankata (2)  02:03+1:2102:04+1:221m--2305.04473mNERDeoria, Uttar Pradesh
17%==%BHTRBhatpar Rani (2)X  02:22 02:15+1:1902:23 02:16+1:201m--2313.14173mNERDeoria, Uttar Pradesh
18%==%BTTBhatni Junction (5)X  02:42 02:35+1:1602:48 02:40+1:176 5m--2326.06273mNERDeoria, Uttar Pradesh
19%==%DEOSDeoria Sadar (3)X  03:05 03:00+1:1603:06 03:05+1:171 5m22346.84579mNERDeoria- 274001, Uttar Pradesh
20%==%GBGauri Bazar (2)X  03:26 03:25+1:1803:27 03:26+1:191m--2361.83682mNERDistrict Deoria- Pincode- 274202, Uttar Pradesh
21%==%CCChauri Chaura (2)  03:43 03:42+1:1303:44 03:43+1:151m--2371.52284mNERGorakhpur- PinCode:- 273201, Uttar Pradesh
22%==%GKPGorakhpur Junction (10)X  04:40 04:50+1:0904:55 05:05+1:1215m12395.94184mNERGorakhpur 273001, Uttar Pradesh
23%==%SWASahjanwa (2)  05:21 05:30+1:2405:22 05:32+1:241 2m--2413.05980mNERGorakhpur - 273209, Uttar Pradesh
24%==%KLDKhalilabad (3)  05:45 05:49+1:2405:46 05:50+1:251m--2429.85186mNERKhalilabad- 272175, Uttar Pradesh
25%==%BSTBasti (4)X  06:15 06:25+1:2006:20 06:30+1:205m12459.38090mNERBasti 272001, Uttar Pradesh
26%==%BVBabhnan (2)  06:44 06:53+1:1706:45 06:55+1:181 2m--2490.158101mNERDistrict- Basti, Uttar Pradesh
27%==%MURMankapur Junction (5)X  07:18 07:26+1:3007:20 07:28+1:312m12519.962104mNERDistrict Gonda, Uttar Pradesh
28%==/GDGonda Junction (3)X  07:55+1:3808:10+1:2915m12547.872110mNERGonda 271001, Uttar Pradesh
29/==/CLJColonelGanj (2)X  08:35 08:34+1:4708:36+1:471 2m12576.727108mNERGonda, Uttar Pradesh
30/==/SUJSarju (2) new halt!!X  08:53+1:3608:54+1:351m--2584.4110109mNERGonda, Uttar Pradesh
31/==/BUWBurhwal Junction (3)XO  09:32 09:08+1:4309:34 09:10+1:462m12610.017119mNERBarabanki, Uttar Pradesh
32/==/BBKBarabanki Junction (4)X  10:45+1:0210:47+1:032m22637.136 NRPin-225001, Uttar Pradesh
33/==/LKOLucknow Charbagh NR (9)  11:40 11:35+1:0311:50+1:0210 15m22665.649 NR226004, Uttar Pradesh
34/==/ONUnnao Junction (5)X  12:57+1:0312:58+1:041m--2720.228129mNRUnnao, Uttar Pradesh
35/==/CNBKanpur Central (10)X  13:35+5713:45+1:0010m--2737.617128mNCRKANPUR-208 001, Uttar Pradesh
36/==/GOYGovindpuri Junction (2)  13:59 13:58+1:1614:00+1:151 2m12741.444129mNCRKANPUR-208 006, Uttar Pradesh
37/=-/BZMBhimsen (1)  14:15 14:14+1:1714:16+1:231 2m12751.657136mNCRKanpur, Uttar Pradesh
38/--/PMNPamanX  14:32+1:2614:33+1:351m--2766.876132mNCRNational Highway 2, Uttar Pradesh
39/--/LLRLalpur (1)14:48 14:44+1:3314:50 14:45+1:362 1m12780.883137mNCRKanpur Dehat, Uttar Pradesh
40/--/PHNPokhrayan (2)X  14:56+1:3214:57+1:351m12796.053133mNCRPukhrayan, Uttar Pradesh
41/--/KPIKalpi  15:14+1:4115:15+1:461m--2811.153114mNCRKalpi Orai(05162-252206), Uttar Pradesh
42/--/ORAIOrai (3)  15:46 15:52+1:3915:47 15:57+1:411 5m--2843.878139mNCROrai(05162-252206), Uttar Pradesh
43/--/AITAit Junction (2)X  16:11 16:16+1:5116:12 16:17+1:551m12868.564154mNCROrai(05162-252206), Uttar Pradesh
44/--/MOTHMoth  16:53 16:49+1:5716:54 16:50+2:011m--2902.571175mNCRJhansi, Uttar Pradesh
45/--/CGNChirgaon  17:14 17:10+2:0717:15 17:11+2:161m--2926.026192mNCRChirgaon, Uttar Pradesh
46/--/JHSJhansi Junction (7)O↵¶18:25+1:2518:40 18:50+1:2915 25m32957.860259mNCRJhansi, Uttar Pradesh
47/==/DAADatia (2)X  19:11 19:15+1:3119:12 19:17+1:311 2m--2982.870264mNCRDatia, Madhya Pradesh
48/==/DBADabra (3)X  19:36 19:43+1:3119:37 19:45+1:321 2m--21013.234 NCRDabra(District-Gwalior), Madhya Pradesh
49/==/GWLGwalior Junction (4)  21:00+54-421055.5-214mNCRGwalior, Madhya Pradesh
Scroll to Top
Scroll to Bottom